Strona główna
METAR-TAF:

METAR-TAF

Lotnisko :

Port lotniczy Bari

Bari, Włochy

Szerokość geograficzna: 41-08N, Długość geograficzna: 016-47E, wysokość: 34 m

Aktualna obserwacja pogody

Raport powstał 15 minut temu, godzina 21:20 UTC
Wiatr 4 kt od zachód
Temperatura 13°C
Wilgotność 94%
Ciśnienie 1015 hPa
Widzialność 10 km lub więcej

METAR: LIBD 302120Z AUTO 26004KT 9999 BKN110/// 13/12 Q1015

czas: 23:35 (21:35 UTC)

Prognoza

Raport powstał 4 godziny i 35 minut temu, godzina 17:00 UTC
Prognoza ważna od 30 godzina 18 UTC do 31 godzina 18 UTC
Wiatr 6 kt z kierunków zmiennych
Widzialność 10 km lub więcej
Rozproszone chmury na wysokości 3000 ft
Stopniowe zmiany
od 31 godzina 06 UTC do 31 godzina 08 UTC
Wiatr 10 kt od północ
Stopniowe zmiany
od 31 godzina 16 UTC do 31 godzina 18 UTC
Wiatr 5 kt z kierunków zmiennych

TAF: LIBD 301700Z 3018/3118 VRB06KT 9999 SCT030 BECMG 3106/3108 01010KT BECMG 3116/3118 VRB05KT

Obserwacja i prognoza pogody dla ponad 4000 lotnisk (raport METAR i TAF).

Dostępne stacje oznaczono żółtymi i czerwonymi punktami na mapie.

Najedź kursorem aby zobaczyć nazwę stacji.

Kliknij aby zobaczyć obserwacje i prognozy pogody.

Aby zmienić mapę: kliknij na zielony przycisk z czarnym krzyżykiem, aby powiększyć; na zielony przycisk z myślnikiem, aby pomniejszyć; na zielone strzałki, aby przejść do map sąsiednich.


METAR-TAF: